sensor_id;sensor_type;location;lat;lon;timestamp;pressure;altitude;pressure_sealevel;temperature;humidity
39699;BME280;25372;50.582;12.250;2023-06-10T00:03:38;99623.97;;;16.44;83.72
39699;BME280;25372;50.582;12.250;2023-06-10T00:14:02;99634.72;;;16.23;85.92
39699;BME280;25372;50.582;12.250;2023-06-10T00:24:23;99646.00;;;16.35;86.40
39699;BME280;25372;50.582;12.250;2023-06-10T00:34:45;99645.88;;;16.46;86.35
39699;BME280;25372;50.582;12.250;2023-06-10T00:45:06;99657.44;;;16.06;86.80
39699;BME280;25372;50.582;12.250;2023-06-10T00:55:31;99668.44;;;15.60;88.82
39699;BME280;25372;50.582;12.250;2023-06-10T01:05:57;99684.34;;;15.29;89.83
39699;BME280;25372;50.582;12.250;2023-06-10T01:16:24;99697.53;;;14.98;90.17
39699;BME280;25372;50.582;12.250;2023-06-10T01:26:48;99704.13;;;14.82;89.76
39699;BME280;25372;50.582;12.250;2023-06-10T01:37:16;99710.97;;;14.85;90.79
39699;BME280;25372;50.582;12.250;2023-06-10T01:47:40;99719.53;;;14.77;90.63
39699;BME280;25372;50.582;12.250;2023-06-10T01:58:00;99721.06;;;14.80;89.85
39699;BME280;25372;50.582;12.250;2023-06-10T02:08:23;99728.91;;;14.70;89.64
39699;BME280;25372;50.582;12.250;2023-06-10T02:18:44;99738.63;;;14.37;91.03
39699;BME280;25372;50.582;12.250;2023-06-10T02:29:07;99756.84;;;13.96;91.07
39699;BME280;25372;50.582;12.250;2023-06-10T02:39:28;99749.63;;;13.87;91.53
39699;BME280;25372;50.582;12.250;2023-06-10T02:49:51;99748.06;;;13.73;90.67
39699;BME280;25372;50.582;12.250;2023-06-10T03:00:13;99741.38;;;13.80;89.08
39699;BME280;25372;50.582;12.250;2023-06-10T03:10:38;99734.75;;;13.97;90.01
39699;BME280;25372;50.582;12.250;2023-06-10T03:21:00;99754.41;;;13.47;90.57
39699;BME280;25372;50.582;12.250;2023-06-10T03:31:23;99755.03;;;13.51;91.47
39699;BME280;25372;50.582;12.250;2023-06-10T03:41:46;99754.94;;;13.64;90.87
39699;BME280;25372;50.582;12.250;2023-06-10T03:52:09;99758.50;;;13.97;90.79
39699;BME280;25372;50.582;12.250;2023-06-10T04:02:30;99769.41;;;14.15;90.56
39699;BME280;25372;50.582;12.250;2023-06-10T04:12:54;99783.38;;;14.50;91.29
39699;BME280;25372;50.582;12.250;2023-06-10T04:23:16;99769.75;;;14.99;87.97
39699;BME280;25372;50.582;12.250;2023-06-10T04:33:41;99771.06;;;15.57;82.46
39699;BME280;25372;50.582;12.250;2023-06-10T04:44:02;99776.19;;;16.01;81.82
39699;BME280;25372;50.582;12.250;2023-06-10T04:54:24;99765.75;;;22.94;59.00
39699;BME280;25372;50.582;12.250;2023-06-10T05:04:47;99762.50;;;24.92;50.74
39699;BME280;25372;50.582;12.250;2023-06-10T05:15:10;99770.75;;;22.18;59.22
39699;BME280;25372;50.582;12.250;2023-06-10T05:25:31;99765.00;;;25.51;48.81
39699;BME280;25372;50.582;12.250;2023-06-10T05:35:53;99776.16;;;22.42;55.95
39699;BME280;25372;50.582;12.250;2023-06-10T05:46:14;99787.03;;;20.01;65.82
39699;BME280;25372;50.582;12.250;2023-06-10T05:56:37;99778.03;;;24.01;52.74
39699;BME280;25372;50.582;12.250;2023-06-10T06:06:58;99779.38;;;25.43;48.12
39699;BME280;25372;50.582;12.250;2023-06-10T06:17:20;99783.50;;;24.45;50.56
39699;BME280;25372;50.582;12.250;2023-06-10T06:27:41;99795.53;;;21.39;59.22
39699;BME280;25372;50.582;12.250;2023-06-10T06:38:03;99796.72;;;20.70;61.88
39699;BME280;25372;50.582;12.250;2023-06-10T06:48:25;99812.06;;;20.76;63.67
39699;BME280;25372;50.582;12.250;2023-06-10T06:58:47;99827.19;;;20.59;63.23
39699;BME280;25372;50.582;12.250;2023-06-10T07:09:08;99839.28;;;20.88;62.42
39699;BME280;25372;50.582;12.250;2023-06-10T07:19:31;99852.16;;;21.26;60.59
39699;BME280;25372;50.582;12.250;2023-06-10T07:29:51;99843.78;;;21.21;62.03
39699;BME280;25372;50.582;12.250;2023-06-10T07:40:13;99856.28;;;21.78;59.78
39699;BME280;25372;50.582;12.250;2023-06-10T07:50:34;99856.28;;;21.70;60.38
39699;BME280;25372;50.582;12.250;2023-06-10T08:00:56;99859.75;;;22.35;59.81
39699;BME280;25372;50.582;12.250;2023-06-10T08:11:17;99863.50;;;22.18;59.40
39699;BME280;25372;50.582;12.250;2023-06-10T08:21:39;99862.13;;;22.70;60.42
39699;BME280;25372;50.582;12.250;2023-06-10T08:32:00;99878.06;;;23.72;55.53
39699;BME280;25372;50.582;12.250;2023-06-10T08:42:28;99869.53;;;24.43;55.36
39699;BME280;25372;50.582;12.250;2023-06-10T08:52:54;99855.56;;;25.07;53.81
39699;BME280;25372;50.582;12.250;2023-06-10T09:03:18;99845.22;;;26.24;47.75
39699;BME280;25372;50.582;12.250;2023-06-10T09:13:39;99851.63;;;25.03;54.91
39699;BME280;25372;50.582;12.250;2023-06-10T09:24:02;99846.88;;;25.05;54.00
39699;BME280;25372;50.582;12.250;2023-06-10T09:34:25;99849.97;;;24.65;52.48
39699;BME280;25372;50.582;12.250;2023-06-10T09:44:51;99849.50;;;24.24;53.54
39699;BME280;25372;50.582;12.250;2023-06-10T09:55:12;99862.28;;;24.07;53.00
39699;BME280;25372;50.582;12.250;2023-06-10T10:05:34;99858.88;;;24.13;52.81
39699;BME280;25372;50.582;12.250;2023-06-10T10:15:58;99849.53;;;24.61;52.21
39699;BME280;25372;50.582;12.250;2023-06-10T10:26:25;99840.31;;;25.36;49.65
39699;BME280;25372;50.582;12.250;2023-06-10T10:36:46;99853.78;;;24.04;55.39
39699;BME280;25372;50.582;12.250;2023-06-10T10:47:10;99848.38;;;25.36;53.12
39699;BME280;25372;50.582;12.250;2023-06-10T10:57:31;99839.09;;;26.44;48.06
39699;BME280;25372;50.582;12.250;2023-06-10T11:07:55;99833.03;;;26.22;49.02
39699;BME280;25372;50.582;12.250;2023-06-10T11:18:23;99811.41;;;27.72;44.19
39699;BME280;25372;50.582;12.250;2023-06-10T11:29:05;99798.13;;;26.56;46.28
39699;BME280;25372;50.582;12.250;2023-06-10T11:39:27;99784.25;;;26.65;45.47
39699;BME280;25372;50.582;12.250;2023-06-10T11:49:56;99804.38;;;25.65;47.21
39699;BME280;25372;50.582;12.250;2023-06-10T12:00:18;99782.56;;;26.44;44.50
39699;BME280;25372;50.582;12.250;2023-06-10T12:10:42;99781.78;;;26.77;44.15
39699;BME280;25372;50.582;12.250;2023-06-10T12:21:03;99778.47;;;26.82;39.56
39699;BME280;25372;50.582;12.250;2023-06-10T12:31:25;99756.16;;;26.88;41.43
39699;BME280;25372;50.582;12.250;2023-06-10T12:41:47;99757.38;;;26.92;39.03
39699;BME280;25372;50.582;12.250;2023-06-10T12:52:10;99757.75;;;26.56;39.74
39699;BME280;25372;50.582;12.250;2023-06-10T13:02:31;99756.16;;;26.88;38.21
39699;BME280;25372;50.582;12.250;2023-06-10T13:12:53;99755.91;;;26.97;40.33
39699;BME280;25372;50.582;12.250;2023-06-10T13:23:14;99745.75;;;27.91;42.08
39699;BME280;25372;50.582;12.250;2023-06-10T13:33:37;99749.34;;;28.31;34.51
39699;BME280;25372;50.582;12.250;2023-06-10T13:43:58;99754.00;;;27.44;35.95
39699;BME280;25372;50.582;12.250;2023-06-10T13:54:20;99726.25;;;30.35;32.19
39699;BME280;25372;50.582;12.250;2023-06-10T14:04:40;99744.38;;;29.11;31.95
39699;BME280;25372;50.582;12.250;2023-06-10T14:15:03;99739.50;;;29.20;28.48
39699;BME280;25372;50.582;12.250;2023-06-10T14:25:24;99732.25;;;28.95;30.85
39699;BME280;25372;50.582;12.250;2023-06-10T14:35:46;99729.41;;;29.08;31.22
39699;BME280;25372;50.582;12.250;2023-06-10T14:46:07;99729.59;;;30.07;30.85
39699;BME280;25372;50.582;12.250;2023-06-10T14:56:29;99738.09;;;28.92;29.87
39699;BME280;25372;50.582;12.250;2023-06-10T15:06:50;99745.69;;;27.59;31.33
39699;BME280;25372;50.582;12.250;2023-06-10T15:17:12;99733.78;;;28.26;31.15
39699;BME280;25372;50.582;12.250;2023-06-10T15:27:33;99729.09;;;28.08;36.10
39699;BME280;25372;50.582;12.250;2023-06-10T15:37:55;99737.94;;;27.83;36.93
39699;BME280;25372;50.582;12.250;2023-06-10T15:48:16;99737.44;;;26.53;37.61
39699;BME280;25372;50.582;12.250;2023-06-10T15:58:38;99730.31;;;27.67;37.64
39699;BME280;25372;50.582;12.250;2023-06-10T16:08:59;99740.00;;;26.88;36.16
39699;BME280;25372;50.582;12.250;2023-06-10T16:19:21;99752.59;;;26.74;37.09
39699;BME280;25372;50.582;12.250;2023-06-10T16:29:42;99760.25;;;26.64;35.89
39699;BME280;25372;50.582;12.250;2023-06-10T16:40:05;99754.88;;;25.95;38.27
39699;BME280;25372;50.582;12.250;2023-06-10T16:50:26;99771.72;;;25.40;40.47
39699;BME280;25372;50.582;12.250;2023-06-10T17:00:48;99776.13;;;25.19;39.20
39699;BME280;25372;50.582;12.250;2023-06-10T17:11:10;99791.38;;;24.68;42.46
39699;BME280;25372;50.582;12.250;2023-06-10T17:21:32;99784.56;;;24.29;42.32
39699;BME280;25372;50.582;12.250;2023-06-10T17:31:53;99785.66;;;23.68;42.04
39699;BME280;25372;50.582;12.250;2023-06-10T17:42:14;99797.28;;;23.07;43.75
39699;BME280;25372;50.582;12.250;2023-06-10T17:52:35;99803.28;;;22.30;49.48
39699;BME280;25372;50.582;12.250;2023-06-10T18:02:57;99803.69;;;22.19;46.85
39699;BME280;25372;50.582;12.250;2023-06-10T18:13:18;99814.84;;;21.83;51.77
39699;BME280;25372;50.582;12.250;2023-06-10T18:23:40;99815.41;;;21.70;52.06
39699;BME280;25372;50.582;12.250;2023-06-10T18:34:01;99824.63;;;21.09;58.89
39699;BME280;25372;50.582;12.250;2023-06-10T18:44:24;99832.94;;;20.30;62.34
39699;BME280;25372;50.582;12.250;2023-06-10T18:54:45;99851.97;;;19.74;63.64
39699;BME280;25372;50.582;12.250;2023-06-10T19:05:07;99864.03;;;19.15;65.19
39699;BME280;25372;50.582;12.250;2023-06-10T19:15:29;99880.94;;;18.78;67.29
39699;BME280;25372;50.582;12.250;2023-06-10T19:25:51;99897.91;;;18.21;68.27
39699;BME280;25372;50.582;12.250;2023-06-10T19:36:12;99917.38;;;17.92;68.50
39699;BME280;25372;50.582;12.250;2023-06-10T19:46:34;99929.75;;;17.63;70.17
39699;BME280;25372;50.582;12.250;2023-06-10T19:56:55;99923.44;;;17.25;72.04
39699;BME280;25372;50.582;12.250;2023-06-10T20:07:16;99936.28;;;17.00;71.52
39699;BME280;25372;50.582;12.250;2023-06-10T20:17:37;99931.22;;;16.97;73.16
39699;BME280;25372;50.582;12.250;2023-06-10T20:28:00;99948.75;;;16.78;73.36
39699;BME280;25372;50.582;12.250;2023-06-10T20:38:21;99945.63;;;16.63;75.16
39699;BME280;25372;50.582;12.250;2023-06-10T20:48:43;99956.00;;;16.35;73.78
39699;BME280;25372;50.582;12.250;2023-06-10T20:59:04;99972.28;;;15.88;75.97
39699;BME280;25372;50.582;12.250;2023-06-10T21:09:26;99979.97;;;15.70;76.52
39699;BME280;25372;50.582;12.250;2023-06-10T21:19:46;99985.22;;;15.81;76.77
39699;BME280;25372;50.582;12.250;2023-06-10T21:30:09;100001.00;;;15.38;75.87
39699;BME280;25372;50.582;12.250;2023-06-10T21:40:29;100005.22;;;15.41;75.94
39699;BME280;25372;50.582;12.250;2023-06-10T21:50:51;100008.56;;;15.43;75.30
39699;BME280;25372;50.582;12.250;2023-06-10T22:01:12;100007.06;;;15.62;71.98
39699;BME280;25372;50.582;12.250;2023-06-10T22:11:34;100018.47;;;15.30;72.25
39699;BME280;25372;50.582;12.250;2023-06-10T22:21:55;100014.91;;;15.08;72.36
39699;BME280;25372;50.582;12.250;2023-06-10T22:32:17;100003.94;;;15.24;71.29
39699;BME280;25372;50.582;12.250;2023-06-10T22:42:38;100015.56;;;14.89;72.21
39699;BME280;25372;50.582;12.250;2023-06-10T22:53:00;100019.66;;;14.23;74.71
39699;BME280;25372;50.582;12.250;2023-06-10T23:03:21;100015.38;;;14.67;74.81
39699;BME280;25372;50.582;12.250;2023-06-10T23:13:43;100016.06;;;14.24;72.86
39699;BME280;25372;50.582;12.250;2023-06-10T23:24:04;100016.19;;;14.11;73.83
39699;BME280;25372;50.582;12.250;2023-06-10T23:34:27;100019.88;;;13.73;75.94
39699;BME280;25372;50.582;12.250;2023-06-10T23:44:47;100021.00;;;13.93;76.17
39699;BME280;25372;50.582;12.250;2023-06-10T23:55:09;100025.72;;;13.65;75.79
